Alamogordo, NM

1:45 PM MDT on June 26, 2017 (GMT -0600)
Alamogordo-White Sands Regional

Weather History for KALM - February, 2013

Change the Weather History Date:

Wednesday, February 20, 2013

  Actual Average Record
Temperature  
Mean Temperature 50 °F -  
Max Temperature 60 °F 61 °F 78 °F (1972)
Min Temperature 37 °F 34 °F 17 °F (1953)
Degree Days  
Heating Degree Days 16    
Moisture  
Dew Point 24 °F    
Average Humidity 40    
Maximum Humidity 70    
Minimum Humidity 15    
Precipitation  
Precipitation 0.00 in - - ()
Sea Level Pressure  
Sea Level Pressure 29.70 in    
Wind  
Wind Speed 17 mph (SSW)    
Max Wind Speed 26 mph    
Max Gust Speed 38 mph    
Visibility 9 miles    
Events      
Averages and records for this station are not official NWS values.
T = Trace of Precipitation, MM = Missing Value Source: NWS Daily Summary

Daily Weather History Graph

Daily Weather History Graph

Search for Another Location

Airport or City:

Trip Planner

Search our weather history database for the weather conditions in past years. The results will help you decide how hot, cold, wet, or windy it might be!

Date:

Astronomy

Feb. 20, 2013 Rise Set
Actual Time 6:41 AM MST 5:54 PM MST
Civil Twilight 6:16 AM MST 6:19 PM MST
Nautical Twilight 5:47 AM MST 6:47 PM MST
Astronomical Twilight 5:19 AM MST 7:16 PM MST
Moon 1:27 PM MST (2/20) 2:54 AM MST (2/20)
Length of Visible Light 12h 02m
Length of Day
11h 12m
Waxing Gibbous, 76% of the Moon is Illuminated
Feb 20
Waxing Gibbous
Feb 25
Full
Mar 4
Last Quarter
Mar 11
New
Mar 19
First Quarter

Hourly Weather History & Observations

Time (MST) Temp. Windchill Dew Point Humidity Pressure Visibility Wind Dir Wind Speed Gust Speed Precip Events Conditions
12:15 AM 50.0 °F - 35.6 °F 58% 29.83 in 10.0 mi SSE 15.0 mph - N/A   Clear
12:35 AM 50.0 °F - 35.6 °F 58% 29.82 in 10.0 mi SSE 18.4 mph 21.9 mph N/A   Clear
12:55 AM 50.0 °F - 35.6 °F 58% 29.82 in 10.0 mi SSE 16.1 mph - N/A   Clear
1:15 AM 50.0 °F - 35.6 °F 58% 29.81 in 10.0 mi SSE 16.1 mph 21.9 mph N/A   Clear
1:35 AM 50.0 °F - 35.6 °F 58% 29.80 in 10.0 mi SSE 13.8 mph - N/A   Clear
1:55 AM 50.0 °F - 33.8 °F 54% 29.78 in 10.0 mi SSE 18.4 mph 24.2 mph N/A   Clear
2:15 AM 50.0 °F - 33.8 °F 54% 29.78 in 10.0 mi SSE 17.3 mph 25.3 mph N/A   Clear
2:35 AM 50.0 °F - 33.8 °F 54% 29.76 in 10.0 mi SSE 21.9 mph 27.6 mph N/A   Clear
2:55 AM 50.0 °F - 32.0 °F 50% 29.76 in 10.0 mi SSE 20.7 mph 28.8 mph N/A   Clear
3:15 AM 50.0 °F - 32.0 °F 50% 29.76 in 10.0 mi South 15.0 mph - N/A   Clear
3:35 AM 50.0 °F - 32.0 °F 50% 29.75 in 10.0 mi SSE 18.4 mph - N/A   Clear
3:55 AM 50.0 °F - 32.0 °F 50% 29.75 in 10.0 mi South 15.0 mph - N/A   Clear
4:15 AM 50.0 °F - 32.0 °F 50% 29.74 in 10.0 mi SSW 12.7 mph - N/A   Clear
4:35 AM 50.0 °F - 32.0 °F 50% 29.73 in 10.0 mi SSE 17.3 mph 25.3 mph N/A   Clear
5:15 AM 50.0 °F - 32.0 °F 50% 29.72 in 10.0 mi SSE 20.7 mph 26.5 mph N/A   Clear
5:55 AM 48.2 °F - 30.2 °F 50% 29.72 in 10.0 mi South 16.1 mph 21.9 mph N/A   Clear
6:15 AM 48.2 °F - 30.2 °F 50% 29.72 in 10.0 mi South 15.0 mph 21.9 mph N/A   Clear
6:35 AM 46.4 °F 40.4 °F 30.2 °F 53% 29.72 in 10.0 mi SSW 13.8 mph 24.2 mph N/A   Clear
6:55 AM 41.0 °F 34.7 °F 32.0 °F 70% 29.73 in 10.0 mi SSW 10.4 mph - N/A   Clear
7:15 AM 41.0 °F 34.7 °F 32.0 °F 70% 29.73 in 10.0 mi South 10.4 mph - N/A   Clear
7:35 AM 44.6 °F 38.8 °F 32.0 °F 61% 29.73 in 10.0 mi South 11.5 mph - N/A   Clear
7:55 AM 50.0 °F - 30.2 °F 47% 29.73 in 10.0 mi South 17.3 mph 21.9 mph N/A   Clear
8:15 AM 51.8 °F - 28.4 °F 41% 29.73 in 10.0 mi South 19.6 mph 26.5 mph N/A   Clear
8:55 AM 53.6 °F - 28.4 °F 38% 29.73 in 10.0 mi South 21.9 mph 28.8 mph N/A   Clear
9:15 AM 55.4 °F - 28.4 °F 36% 29.73 in 10.0 mi South 20.7 mph 24.2 mph N/A   Clear
9:35 AM 53.6 °F - 30.2 °F 41% 29.74 in 10.0 mi SSW 13.8 mph 21.9 mph N/A   Clear
9:55 AM 55.4 °F - 32.0 °F 41% 29.74 in 10.0 mi SSW 18.4 mph 24.2 mph N/A   Clear
10:15 AM 55.4 °F - 26.6 °F 33% 29.73 in 10.0 mi SSW 17.3 mph 24.2 mph N/A   Clear
10:35 AM 55.4 °F - 24.8 °F 31% 29.72 in 10.0 mi SSW 12.7 mph 23.0 mph N/A   Clear
10:55 AM 57.2 °F - 24.8 °F 29% 29.71 in 10.0 mi SW 16.1 mph 21.9 mph N/A   Clear
11:15 AM 57.2 °F - 19.4 °F 23% 29.71 in 10.0 mi SW 17.3 mph 24.2 mph N/A   Clear
11:35 AM 59.0 °F - 19.4 °F 22% 29.70 in 10.0 mi South 19.6 mph 32.2 mph N/A   Clear
11:55 AM 59.0 °F - 15.8 °F 19% 29.69 in 10.0 mi SSW 21.9 mph 26.5 mph N/A   Partly Cloudy
12:15 PM 59.0 °F - 14.0 °F 17% 29.68 in 10.0 mi South 19.6 mph 29.9 mph N/A   Clear
12:35 PM 59.0 °F - 12.2 °F 16% 29.66 in 10.0 mi SW 13.8 mph 32.2 mph N/A   Scattered Clouds
12:55 PM 59.0 °F - 14.0 °F 17% 29.65 in 10.0 mi SSW 17.3 mph 23.0 mph N/A   Scattered Clouds
1:15 PM 59.0 °F - 12.2 °F 16% 29.63 in 10.0 mi SSW 19.6 mph 27.6 mph N/A   Partly Cloudy
1:35 PM 60.8 °F - 12.2 °F 15% 29.62 in 7.0 mi SW 23.0 mph 32.2 mph N/A   Clear
1:55 PM 59.0 °F - 10.4 °F 15% 29.61 in 3.0 mi SW 24.2 mph 32.2 mph N/A   Haze
2:15 PM 59.0 °F - 12.2 °F 16% 29.60 in 5.0 mi SW 25.3 mph 38.0 mph N/A   Haze
2:35 PM 60.8 °F - 12.2 °F 15% 29.60 in 5.0 mi SW 26.5 mph 36.8 mph N/A   Haze
2:55 PM 59.0 °F - 14.0 °F 17% 29.60 in 6.0 mi SW 21.9 mph 31.1 mph N/A   Haze
3:15 PM 59.0 °F - 15.8 °F 19% 29.59 in 10.0 mi West 24.2 mph 31.1 mph N/A   Clear
3:35 PM 59.0 °F - 15.8 °F 19% 29.59 in 10.0 mi West 25.3 mph 32.2 mph N/A   Clear
3:55 PM 57.2 °F - 15.8 °F 20% 29.60 in 10.0 mi West 17.3 mph 26.5 mph N/A   Clear
4:15 PM 57.2 °F - 15.8 °F 20% 29.60 in 10.0 mi West 20.7 mph 27.6 mph N/A   Partly Cloudy
4:35 PM 55.4 °F - 14.0 °F 20% 29.60 in 9.0 mi West 17.3 mph 25.3 mph N/A   Clear
4:55 PM 55.4 °F - 14.0 °F 20% 29.60 in 9.0 mi SW 13.8 mph 20.7 mph N/A   Scattered Clouds
5:15 PM 55.4 °F - 14.0 °F 20% 29.60 in 10.0 mi WSW 8.1 mph - N/A   Mostly Cloudy
5:55 PM 53.6 °F - 14.0 °F 21% 29.61 in 5.0 mi West 15.0 mph 18.4 mph N/A   Haze
6:15 PM 51.8 °F - 15.8 °F 24% 29.61 in 8.0 mi WNW 15.0 mph 18.4 mph N/A   Partly Cloudy
6:35 PM 50.0 °F - 15.8 °F 26% 29.62 in 6.0 mi West 6.9 mph - N/A   Haze
6:55 PM 50.0 °F - 17.6 °F 28% 29.62 in 10.0 mi West 11.5 mph - N/A   Scattered Clouds
7:15 PM 48.2 °F - 23.0 °F 37% 29.63 in 8.0 mi West 15.0 mph 27.6 mph N/A   Partly Cloudy
7:35 PM 46.4 °F 39.5 °F 24.8 °F 43% 29.64 in 4.0 mi West 17.3 mph - N/A   Haze
7:55 PM 46.4 °F 41.5 °F 26.6 °F 46% 29.66 in 10.0 mi WSW 10.4 mph 23.0 mph N/A   Clear
8:15 PM 44.6 °F 37.2 °F 26.6 °F 49% 29.67 in 10.0 mi West 17.3 mph 20.7 mph N/A   Mostly Cloudy
8:35 PM 42.8 °F 33.8 °F 28.4 °F 57% 29.70 in 10.0 mi WSW 21.9 mph 35.7 mph N/A   Overcast
8:55 PM 39.2 °F 30.8 °F 30.2 °F 70% 29.74 in 10.0 mi SW 15.0 mph 24.2 mph N/A   Mostly Cloudy
9:15 PM 39.2 °F 32.5 °F 28.4 °F 65% 29.75 in 10.0 mi SW 10.4 mph 20.7 mph N/A   Overcast
9:35 PM 39.2 °F 31.2 °F 28.4 °F 65% 29.75 in 10.0 mi SSE 13.8 mph - N/A   Mostly Cloudy
9:55 PM 39.2 °F 30.5 °F 28.4 °F 65% 29.71 in 10.0 mi SE 16.1 mph - N/A   Scattered Clouds
10:15 PM 39.2 °F 29.6 °F 26.6 °F 61% 29.70 in 10.0 mi SSE 19.6 mph 23.0 mph N/A   Mostly Cloudy
10:35 PM 39.2 °F 30.2 °F 26.6 °F 61% 29.69 in 10.0 mi South 17.3 mph - N/A   Partly Cloudy
10:55 PM 39.2 °F 29.8 °F 21.2 °F 49% 29.68 in 10.0 mi South 18.4 mph 25.3 mph N/A   Partly Cloudy
11:15 PM 39.2 °F 29.0 °F 21.2 °F 49% 29.69 in 10.0 mi South 21.9 mph 28.8 mph N/A   Clear
11:35 PM 39.2 °F 30.5 °F 19.4 °F 45% 29.71 in 10.0 mi South 16.1 mph 24.2 mph N/A   Clear
11:55 PM 37.4 °F 29.3 °F 15.8 °F 41% 29.73 in 10.0 mi SSW 12.7 mph - N/A   Clear